sensor_id;sensor_type;location;lat;lon;timestamp;P1;durP1;ratioP1;P2;durP2;ratioP2
55254;SDS011;41118;44.634;11.182;2023-03-08T00:02:17;2.30;;;0.47;;
55254;SDS011;41118;44.634;11.182;2023-03-08T00:04:43;1.52;;;0.40;;
55254;SDS011;41118;44.634;11.182;2023-03-08T00:07:09;4.40;;;0.30;;
55254;SDS011;41118;44.634;11.182;2023-03-08T00:09:36;3.58;;;0.30;;
55254;SDS011;41118;44.634;11.182;2023-03-08T00:12:03;4.10;;;0.32;;
55254;SDS011;41118;44.634;11.182;2023-03-08T00:14:29;1.30;;;0.30;;
55254;SDS011;41118;44.634;11.182;2023-03-08T00:16:55;2.53;;;0.40;;
55254;SDS011;41118;44.634;11.182;2023-03-08T00:19:21;1.25;;;0.30;;
55254;SDS011;41118;44.634;11.182;2023-03-08T00:21:47;1.92;;;0.30;;
55254;SDS011;41118;44.634;11.182;2023-03-08T00:24:13;1.50;;;0.20;;
55254;SDS011;41118;44.634;11.182;2023-03-08T00:26:41;4.63;;;0.60;;
55254;SDS011;41118;44.634;11.182;2023-03-08T00:29:07;4.05;;;0.30;;
55254;SDS011;41118;44.634;11.182;2023-03-08T00:31:33;2.03;;;0.38;;
55254;SDS011;41118;44.634;11.182;2023-03-08T00:33:59;1.55;;;0.30;;
55254;SDS011;41118;44.634;11.182;2023-03-08T00:36:25;1.70;;;0.30;;
55254;SDS011;41118;44.634;11.182;2023-03-08T00:38:51;1.50;;;0.47;;
55254;SDS011;41118;44.634;11.182;2023-03-08T00:41:17;0.93;;;0.30;;
55254;SDS011;41118;44.634;11.182;2023-03-08T00:43:43;1.13;;;0.30;;
55254;SDS011;41118;44.634;11.182;2023-03-08T00:46:10;2.67;;;0.35;;
55254;SDS011;41118;44.634;11.182;2023-03-08T00:48:36;2.58;;;0.50;;
55254;SDS011;41118;44.634;11.182;2023-03-08T00:51:02;2.38;;;0.30;;
55254;SDS011;41118;44.634;11.182;2023-03-08T00:53:29;1.40;;;0.38;;
55254;SDS011;41118;44.634;11.182;2023-03-08T00:55:56;1.58;;;0.30;;
55254;SDS011;41118;44.634;11.182;2023-03-08T00:58:24;1.23;;;0.30;;
55254;SDS011;41118;44.634;11.182;2023-03-08T01:00:50;1.20;;;0.30;;
55254;SDS011;41118;44.634;11.182;2023-03-08T01:03:17;1.25;;;0.30;;
55254;SDS011;41118;44.634;11.182;2023-03-08T01:05:44;1.80;;;0.30;;
55254;SDS011;41118;44.634;11.182;2023-03-08T01:08:11;1.67;;;0.30;;
55254;SDS011;41118;44.634;11.182;2023-03-08T01:10:37;2.75;;;0.30;;
55254;SDS011;41118;44.634;11.182;2023-03-08T01:13:05;1.98;;;0.30;;
55254;SDS011;41118;44.634;11.182;2023-03-08T01:15:35;2.53;;;0.30;;
55254;SDS011;41118;44.634;11.182;2023-03-08T01:18:02;1.55;;;0.30;;
55254;SDS011;41118;44.634;11.182;2023-03-08T01:20:28;0.90;;;0.20;;
55254;SDS011;41118;44.634;11.182;2023-03-08T01:22:54;1.25;;;0.30;;
55254;SDS011;41118;44.634;11.182;2023-03-08T01:25:20;0.70;;;0.20;;
55254;SDS011;41118;44.634;11.182;2023-03-08T01:27:47;1.08;;;0.30;;
55254;SDS011;41118;44.634;11.182;2023-03-08T01:30:13;1.10;;;0.30;;
55254;SDS011;41118;44.634;11.182;2023-03-08T01:32:39;2.33;;;0.40;;
55254;SDS011;41118;44.634;11.182;2023-03-08T01:35:05;4.50;;;0.50;;
55254;SDS011;41118;44.634;11.182;2023-03-08T01:37:32;0.85;;;0.20;;
55254;SDS011;41118;44.634;11.182;2023-03-08T01:39:58;0.70;;;0.20;;
55254;SDS011;41118;44.634;11.182;2023-03-08T01:42:25;1.63;;;0.30;;
55254;SDS011;41118;44.634;11.182;2023-03-08T01:47:18;0.68;;;0.20;;
55254;SDS011;41118;44.634;11.182;2023-03-08T01:49:44;0.80;;;0.20;;
55254;SDS011;41118;44.634;11.182;2023-03-08T01:52:11;3.22;;;0.65;;
55254;SDS011;41118;44.634;11.182;2023-03-08T01:54:43;1.25;;;0.50;;
55254;SDS011;41118;44.634;11.182;2023-03-08T01:59:57;0.57;;;0.10;;
55254;SDS011;41118;44.634;11.182;2023-03-08T02:02:25;4.05;;;0.20;;
55254;SDS011;41118;44.634;11.182;2023-03-08T02:04:53;2.35;;;0.20;;
55254;SDS011;41118;44.634;11.182;2023-03-08T02:07:19;1.15;;;0.20;;
55254;SDS011;41118;44.634;11.182;2023-03-08T02:09:46;1.40;;;0.22;;
55254;SDS011;41118;44.634;11.182;2023-03-08T02:12:13;1.10;;;0.20;;
55254;SDS011;41118;44.634;11.182;2023-03-08T02:14:42;0.93;;;0.20;;
55254;SDS011;41118;44.634;11.182;2023-03-08T02:17:09;0.82;;;0.20;;
55254;SDS011;41118;44.634;11.182;2023-03-08T02:19:52;1.55;;;0.20;;
55254;SDS011;41118;44.634;11.182;2023-03-08T02:22:20;1.00;;;0.20;;
55254;SDS011;41118;44.634;11.182;2023-03-08T02:24:46;1.02;;;0.20;;
55254;SDS011;41118;44.634;11.182;2023-03-08T02:27:13;0.80;;;0.20;;
55254;SDS011;41118;44.634;11.182;2023-03-08T02:29:41;1.33;;;0.30;;
55254;SDS011;41118;44.634;11.182;2023-03-08T02:32:07;2.33;;;0.20;;
55254;SDS011;41118;44.634;11.182;2023-03-08T02:34:33;2.85;;;0.20;;
55254;SDS011;41118;44.634;11.182;2023-03-08T02:36:59;1.23;;;0.20;;
55254;SDS011;41118;44.634;11.182;2023-03-08T02:39:25;1.20;;;0.13;;
55254;SDS011;41118;44.634;11.182;2023-03-08T02:41:51;1.25;;;0.20;;
55254;SDS011;41118;44.634;11.182;2023-03-08T02:44:18;3.55;;;0.20;;
55254;SDS011;41118;44.634;11.182;2023-03-08T02:46:44;1.08;;;0.13;;
55254;SDS011;41118;44.634;11.182;2023-03-08T02:49:10;0.82;;;0.17;;
55254;SDS011;41118;44.634;11.182;2023-03-08T02:51:36;2.15;;;0.10;;
55254;SDS011;41118;44.634;11.182;2023-03-08T02:54:02;2.80;;;0.22;;
55254;SDS011;41118;44.634;11.182;2023-03-08T02:56:28;0.50;;;0.10;;
55254;SDS011;41118;44.634;11.182;2023-03-08T02:58:55;0.43;;;0.10;;
55254;SDS011;41118;44.634;11.182;2023-03-08T03:01:21;3.80;;;0.20;;
55254;SDS011;41118;44.634;11.182;2023-03-08T03:03:48;0.88;;;0.10;;
55254;SDS011;41118;44.634;11.182;2023-03-08T03:06:14;1.27;;;0.20;;
55254;SDS011;41118;44.634;11.182;2023-03-08T03:08:41;3.17;;;0.10;;
55254;SDS011;41118;44.634;11.182;2023-03-08T03:11:11;0.50;;;0.10;;
55254;SDS011;41118;44.634;11.182;2023-03-08T03:13:37;0.38;;;0.10;;
55254;SDS011;41118;44.634;11.182;2023-03-08T03:16:07;1.10;;;0.20;;
55254;SDS011;41118;44.634;11.182;2023-03-08T03:18:33;0.55;;;0.20;;
55254;SDS011;41118;44.634;11.182;2023-03-08T03:21:06;1.10;;;0.10;;
55254;SDS011;41118;44.634;11.182;2023-03-08T03:23:32;1.05;;;0.10;;
55254;SDS011;41118;44.634;11.182;2023-03-08T03:26:06;0.50;;;0.10;;
55254;SDS011;41118;44.634;11.182;2023-03-08T03:28:32;0.40;;;0.10;;
55254;SDS011;41118;44.634;11.182;2023-03-08T03:30:59;0.55;;;0.10;;
55254;SDS011;41118;44.634;11.182;2023-03-08T03:33:25;1.60;;;0.10;;
55254;SDS011;41118;44.634;11.182;2023-03-08T03:35:51;0.40;;;0.10;;
55254;SDS011;41118;44.634;11.182;2023-03-08T03:38:17;0.90;;;0.20;;
55254;SDS011;41118;44.634;11.182;2023-03-08T03:40:43;0.73;;;0.20;;
55254;SDS011;41118;44.634;11.182;2023-03-08T03:43:09;0.70;;;0.10;;
55254;SDS011;41118;44.634;11.182;2023-03-08T03:45:35;2.15;;;0.20;;
55254;SDS011;41118;44.634;11.182;2023-03-08T03:48:02;0.95;;;0.15;;
55254;SDS011;41118;44.634;11.182;2023-03-08T03:50:28;0.80;;;0.10;;
55254;SDS011;41118;44.634;11.182;2023-03-08T03:52:55;1.55;;;0.10;;
55254;SDS011;41118;44.634;11.182;2023-03-08T03:55:21;0.55;;;0.10;;
55254;SDS011;41118;44.634;11.182;2023-03-08T03:57:47;1.33;;;0.20;;
55254;SDS011;41118;44.634;11.182;2023-03-08T04:00:14;1.67;;;0.20;;
55254;SDS011;41118;44.634;11.182;2023-03-08T04:02:41;0.60;;;0.20;;
55254;SDS011;41118;44.634;11.182;2023-03-08T04:05:07;1.08;;;0.20;;
55254;SDS011;41118;44.634;11.182;2023-03-08T04:07:33;0.77;;;0.10;;
55254;SDS011;41118;44.634;11.182;2023-03-08T04:09:59;0.40;;;0.17;;
55254;SDS011;41118;44.634;11.182;2023-03-08T04:12:25;0.60;;;0.20;;
55254;SDS011;41118;44.634;11.182;2023-03-08T04:14:52;2.20;;;0.10;;
55254;SDS011;41118;44.634;11.182;2023-03-08T04:17:18;0.85;;;0.10;;
55254;SDS011;41118;44.634;11.182;2023-03-08T04:19:44;1.15;;;0.20;;
55254;SDS011;41118;44.634;11.182;2023-03-08T04:22:10;2.05;;;0.20;;
55254;SDS011;41118;44.634;11.182;2023-03-08T04:24:36;1.00;;;0.10;;
55254;SDS011;41118;44.634;11.182;2023-03-08T04:27:03;1.35;;;0.20;;
55254;SDS011;41118;44.634;11.182;2023-03-08T04:29:29;0.70;;;0.17;;
55254;SDS011;41118;44.634;11.182;2023-03-08T04:31:55;0.93;;;0.20;;
55254;SDS011;41118;44.634;11.182;2023-03-08T04:34:24;0.63;;;0.20;;
55254;SDS011;41118;44.634;11.182;2023-03-08T04:36:50;0.75;;;0.20;;
55254;SDS011;41118;44.634;11.182;2023-03-08T04:39:16;2.92;;;0.22;;
55254;SDS011;41118;44.634;11.182;2023-03-08T04:41:42;1.02;;;0.13;;
55254;SDS011;41118;44.634;11.182;2023-03-08T04:44:08;1.08;;;0.20;;
55254;SDS011;41118;44.634;11.182;2023-03-08T04:46:34;0.85;;;0.20;;
55254;SDS011;41118;44.634;11.182;2023-03-08T04:49:00;0.63;;;0.13;;
55254;SDS011;41118;44.634;11.182;2023-03-08T04:51:26;0.40;;;0.10;;
55254;SDS011;41118;44.634;11.182;2023-03-08T04:53:53;3.55;;;0.20;;
55254;SDS011;41118;44.634;11.182;2023-03-08T04:56:19;0.35;;;0.15;;
55254;SDS011;41118;44.634;11.182;2023-03-08T04:58:45;0.75;;;0.10;;
55254;SDS011;41118;44.634;11.182;2023-03-08T05:01:15;0.75;;;0.17;;
55254;SDS011;41118;44.634;11.182;2023-03-08T05:03:42;0.60;;;0.10;;
55254;SDS011;41118;44.634;11.182;2023-03-08T05:06:09;0.45;;;0.10;;
55254;SDS011;41118;44.634;11.182;2023-03-08T05:08:35;2.80;;;0.20;;
55254;SDS011;41118;44.634;11.182;2023-03-08T05:11:02;10.30;;;1.35;;
55254;SDS011;41118;44.634;11.182;2023-03-08T05:13:29;3.15;;;0.10;;
55254;SDS011;41118;44.634;11.182;2023-03-08T05:15:56;2.05;;;0.20;;
55254;SDS011;41118;44.634;11.182;2023-03-08T05:18:23;1.35;;;0.20;;
55254;SDS011;41118;44.634;11.182;2023-03-08T05:20:56;1.65;;;0.20;;
55254;SDS011;41118;44.634;11.182;2023-03-08T05:23:23;2.03;;;0.20;;
55254;SDS011;41118;44.634;11.182;2023-03-08T05:25:52;2.05;;;0.20;;
55254;SDS011;41118;44.634;11.182;2023-03-08T05:28:20;1.50;;;0.17;;
55254;SDS011;41118;44.634;11.182;2023-03-08T05:30:46;2.75;;;0.20;;
55254;SDS011;41118;44.634;11.182;2023-03-08T05:33:13;3.35;;;0.20;;
55254;SDS011;41118;44.634;11.182;2023-03-08T05:35:39;1.17;;;0.10;;
55254;SDS011;41118;44.634;11.182;2023-03-08T05:38:06;0.73;;;0.20;;
55254;SDS011;41118;44.634;11.182;2023-03-08T05:40:32;0.98;;;0.10;;
55254;SDS011;41118;44.634;11.182;2023-03-08T05:42:58;0.40;;;0.10;;
55254;SDS011;41118;44.634;11.182;2023-03-08T05:45:24;2.42;;;0.10;;
55254;SDS011;41118;44.634;11.182;2023-03-08T05:47:50;0.57;;;0.10;;
55254;SDS011;41118;44.634;11.182;2023-03-08T05:50:16;2.22;;;0.10;;
55254;SDS011;41118;44.634;11.182;2023-03-08T05:52:42;1.73;;;0.20;;
55254;SDS011;41118;44.634;11.182;2023-03-08T05:55:09;1.25;;;0.10;;
55254;SDS011;41118;44.634;11.182;2023-03-08T05:57:35;2.33;;;0.20;;
55254;SDS011;41118;44.634;11.182;2023-03-08T06:00:02;2.80;;;0.20;;
55254;SDS011;41118;44.634;11.182;2023-03-08T06:02:28;0.63;;;0.10;;
55254;SDS011;41118;44.634;11.182;2023-03-08T06:04:55;1.98;;;0.68;;
55254;SDS011;41118;44.634;11.182;2023-03-08T06:07:21;2.67;;;0.10;;
55254;SDS011;41118;44.634;11.182;2023-03-08T06:09:47;1.23;;;0.40;;
55254;SDS011;41118;44.634;11.182;2023-03-08T06:12:15;1.67;;;0.10;;
55254;SDS011;41118;44.634;11.182;2023-03-08T06:14:41;0.63;;;0.10;;
55254;SDS011;41118;44.634;11.182;2023-03-08T06:17:08;0.73;;;0.10;;
55254;SDS011;41118;44.634;11.182;2023-03-08T06:19:34;2.03;;;0.10;;
55254;SDS011;41118;44.634;11.182;2023-03-08T06:22:00;1.58;;;0.20;;
55254;SDS011;41118;44.634;11.182;2023-03-08T06:24:26;3.42;;;0.10;;
55254;SDS011;41118;44.634;11.182;2023-03-08T06:26:52;1.45;;;0.17;;
55254;SDS011;41118;44.634;11.182;2023-03-08T06:29:19;4.53;;;0.10;;
55254;SDS011;41118;44.634;11.182;2023-03-08T06:31:46;1.88;;;0.20;;
55254;SDS011;41118;44.634;11.182;2023-03-08T06:34:12;1.05;;;0.10;;
55254;SDS011;41118;44.634;11.182;2023-03-08T06:36:38;0.63;;;0.10;;
55254;SDS011;41118;44.634;11.182;2023-03-08T06:39:05;0.57;;;0.10;;
55254;SDS011;41118;44.634;11.182;2023-03-08T06:41:31;1.52;;;0.20;;
55254;SDS011;41118;44.634;11.182;2023-03-08T06:43:57;2.97;;;0.20;;
55254;SDS011;41118;44.634;11.182;2023-03-08T06:46:24;1.73;;;0.20;;
55254;SDS011;41118;44.634;11.182;2023-03-08T06:48:50;0.50;;;0.10;;
55254;SDS011;41118;44.634;11.182;2023-03-08T06:51:18;2.90;;;0.10;;
55254;SDS011;41118;44.634;11.182;2023-03-08T06:53:44;4.97;;;0.20;;
55254;SDS011;41118;44.634;11.182;2023-03-08T06:56:11;1.08;;;0.13;;
55254;SDS011;41118;44.634;11.182;2023-03-08T06:58:38;0.40;;;0.10;;
55254;SDS011;41118;44.634;11.182;2023-03-08T07:01:04;0.68;;;0.10;;
55254;SDS011;41118;44.634;11.182;2023-03-08T07:03:31;1.13;;;0.30;;
55254;SDS011;41118;44.634;11.182;2023-03-08T07:06:04;0.60;;;0.10;;
55254;SDS011;41118;44.634;11.182;2023-03-08T07:08:31;0.65;;;0.10;;
55254;SDS011;41118;44.634;11.182;2023-03-08T07:10:57;1.52;;;0.20;;
55254;SDS011;41118;44.634;11.182;2023-03-08T07:13:23;3.30;;;0.10;;
55254;SDS011;41118;44.634;11.182;2023-03-08T07:15:50;1.00;;;0.25;;
55254;SDS011;41118;44.634;11.182;2023-03-08T07:18:17;6.57;;;0.20;;
55254;SDS011;41118;44.634;11.182;2023-03-08T07:20:44;2.67;;;0.20;;
55254;SDS011;41118;44.634;11.182;2023-03-08T07:23:11;4.50;;;0.20;;
55254;SDS011;41118;44.634;11.182;2023-03-08T07:25:37;0.65;;;0.10;;
55254;SDS011;41118;44.634;11.182;2023-03-08T07:28:06;6.22;;;0.22;;
55254;SDS011;41118;44.634;11.182;2023-03-08T07:30:32;1.65;;;0.30;;
55254;SDS011;41118;44.634;11.182;2023-03-08T07:32:59;4.97;;;1.38;;
55254;SDS011;41118;44.634;11.182;2023-03-08T07:35:25;1.70;;;0.30;;
55254;SDS011;41118;44.634;11.182;2023-03-08T07:37:51;1.60;;;0.30;;
55254;SDS011;41118;44.634;11.182;2023-03-08T07:40:17;1.58;;;0.20;;
55254;SDS011;41118;44.634;11.182;2023-03-08T07:42:43;2.33;;;0.20;;
55254;SDS011;41118;44.634;11.182;2023-03-08T07:45:10;4.80;;;0.20;;
55254;SDS011;41118;44.634;11.182;2023-03-08T07:47:37;2.15;;;0.20;;
55254;SDS011;41118;44.634;11.182;2023-03-08T07:50:04;1.05;;;0.30;;
55254;SDS011;41118;44.634;11.182;2023-03-08T07:52:30;1.17;;;0.20;;
55254;SDS011;41118;44.634;11.182;2023-03-08T07:54:57;5.95;;;0.30;;
55254;SDS011;41118;44.634;11.182;2023-03-08T07:57:23;8.05;;;0.40;;
55254;SDS011;41118;44.634;11.182;2023-03-08T07:59:49;8.02;;;0.50;;
55254;SDS011;41118;44.634;11.182;2023-03-08T08:02:16;4.30;;;0.20;;
55254;SDS011;41118;44.634;11.182;2023-03-08T08:04:42;2.30;;;0.30;;
55254;SDS011;41118;44.634;11.182;2023-03-08T08:07:12;2.58;;;1.05;;
55254;SDS011;41118;44.634;11.182;2023-03-08T08:09:39;1.00;;;0.20;;
55254;SDS011;41118;44.634;11.182;2023-03-08T08:12:05;2.00;;;0.20;;
55254;SDS011;41118;44.634;11.182;2023-03-08T08:14:31;5.15;;;0.32;;
55254;SDS011;41118;44.634;11.182;2023-03-08T08:16:57;2.75;;;0.40;;
55254;SDS011;41118;44.634;11.182;2023-03-08T08:19:24;2.95;;;0.60;;
55254;SDS011;41118;44.634;11.182;2023-03-08T08:21:50;2.97;;;0.50;;
55254;SDS011;41118;44.634;11.182;2023-03-08T08:24:16;1.63;;;0.30;;
55254;SDS011;41118;44.634;11.182;2023-03-08T08:26:42;2.53;;;0.20;;
55254;SDS011;41118;44.634;11.182;2023-03-08T08:29:09;3.60;;;0.32;;
55254;SDS011;41118;44.634;11.182;2023-03-08T08:31:35;8.50;;;0.40;;
55254;SDS011;41118;44.634;11.182;2023-03-08T08:34:01;1.60;;;0.30;;
55254;SDS011;41118;44.634;11.182;2023-03-08T08:36:27;3.42;;;0.40;;
55254;SDS011;41118;44.634;11.182;2023-03-08T08:38:53;7.43;;;0.45;;
55254;SDS011;41118;44.634;11.182;2023-03-08T08:41:19;3.45;;;0.40;;
55254;SDS011;41118;44.634;11.182;2023-03-08T08:43:46;1.92;;;0.30;;
55254;SDS011;41118;44.634;11.182;2023-03-08T08:46:13;7.65;;;0.85;;
55254;SDS011;41118;44.634;11.182;2023-03-08T08:48:39;4.65;;;0.40;;
55254;SDS011;41118;44.634;11.182;2023-03-08T08:51:06;2.20;;;0.30;;
55254;SDS011;41118;44.634;11.182;2023-03-08T08:53:33;5.07;;;0.50;;
55254;SDS011;41118;44.634;11.182;2023-03-08T08:56:11;2.08;;;0.68;;
55254;SDS011;41118;44.634;11.182;2023-03-08T08:58:37;6.78;;;1.00;;
55254;SDS011;41118;44.634;11.182;2023-03-08T09:01:03;2.22;;;0.40;;
55254;SDS011;41118;44.634;11.182;2023-03-08T09:03:29;2.85;;;0.85;;
55254;SDS011;41118;44.634;11.182;2023-03-08T09:05:56;5.95;;;0.50;;
55254;SDS011;41118;44.634;11.182;2023-03-08T09:08:23;3.00;;;0.85;;
55254;SDS011;41118;44.634;11.182;2023-03-08T09:10:49;3.33;;;0.65;;
55254;SDS011;41118;44.634;11.182;2023-03-08T09:13:16;2.83;;;0.75;;
55254;SDS011;41118;44.634;11.182;2023-03-08T09:15:42;7.22;;;0.60;;
55254;SDS011;41118;44.634;11.182;2023-03-08T09:18:08;2.95;;;0.60;;
55254;SDS011;41118;44.634;11.182;2023-03-08T09:20:34;12.63;;;1.95;;
55254;SDS011;41118;44.634;11.182;2023-03-08T09:23:00;4.78;;;1.30;;
55254;SDS011;41118;44.634;11.182;2023-03-08T09:25:27;4.45;;;1.38;;
55254;SDS011;41118;44.634;11.182;2023-03-08T09:27:53;3.83;;;0.98;;
55254;SDS011;41118;44.634;11.182;2023-03-08T09:30:20;5.47;;;1.15;;
55254;SDS011;41118;44.634;11.182;2023-03-08T09:32:46;6.65;;;1.13;;
55254;SDS011;41118;44.634;11.182;2023-03-08T09:35:12;6.20;;;1.70;;
55254;SDS011;41118;44.634;11.182;2023-03-08T09:37:39;5.93;;;1.17;;
55254;SDS011;41118;44.634;11.182;2023-03-08T09:40:05;7.60;;;0.80;;
55254;SDS011;41118;44.634;11.182;2023-03-08T09:42:34;3.70;;;1.13;;
55254;SDS011;41118;44.634;11.182;2023-03-08T09:50:13;1.95;;;0.63;;
55254;SDS011;41118;44.634;11.182;2023-03-08T09:53:04;3.47;;;1.10;;
55254;SDS011;41118;44.634;11.182;2023-03-08T09:55:30;2.05;;;0.70;;
55254;SDS011;41118;44.634;11.182;2023-03-08T10:00:41;2.15;;;0.40;;
55254;SDS011;41118;44.634;11.182;2023-03-08T10:05:59;2.92;;;0.75;;
55254;SDS011;41118;44.634;11.182;2023-03-08T10:11:00;2.65;;;0.50;;
55254;SDS011;41118;44.634;11.182;2023-03-08T10:20:55;5.15;;;0.43;;
55254;SDS011;41118;44.634;11.182;2023-03-08T10:23:23;2.75;;;0.52;;
55254;SDS011;41118;44.634;11.182;2023-03-08T10:25:50;2.25;;;0.40;;
55254;SDS011;41118;44.634;11.182;2023-03-08T10:28:17;2.95;;;0.40;;
55254;SDS011;41118;44.634;11.182;2023-03-08T10:30:45;1.40;;;0.30;;
55254;SDS011;41118;44.634;11.182;2023-03-08T10:33:12;3.03;;;0.40;;
55254;SDS011;41118;44.634;11.182;2023-03-08T10:38:36;5.10;;;1.13;;
55254;SDS011;41118;44.634;11.182;2023-03-08T10:43:55;1.42;;;0.50;;
55254;SDS011;41118;44.634;11.182;2023-03-08T10:46:23;5.38;;;0.40;;
55254;SDS011;41118;44.634;11.182;2023-03-08T10:48:50;2.83;;;0.50;;
55254;SDS011;41118;44.634;11.182;2023-03-08T10:51:26;3.58;;;0.38;;
55254;SDS011;41118;44.634;11.182;2023-03-08T10:53:54;1.83;;;0.30;;
55254;SDS011;41118;44.634;11.182;2023-03-08T10:56:22;5.35;;;0.30;;
55254;SDS011;41118;44.634;11.182;2023-03-08T10:58:49;5.50;;;0.30;;
55254;SDS011;41118;44.634;11.182;2023-03-08T11:01:27;1.95;;;0.30;;
55254;SDS011;41118;44.634;11.182;2023-03-08T11:06:23;1.45;;;0.30;;
55254;SDS011;41118;44.634;11.182;2023-03-08T11:08:53;4.07;;;0.30;;
55254;SDS011;41118;44.634;11.182;2023-03-08T11:11:19;3.10;;;0.40;;
55254;SDS011;41118;44.634;11.182;2023-03-08T11:13:46;2.97;;;0.30;;
55254;SDS011;41118;44.634;11.182;2023-03-08T11:21:25;1.52;;;0.20;;
55254;SDS011;41118;44.634;11.182;2023-03-08T11:24:15;1.23;;;0.20;;
55254;SDS011;41118;44.634;11.182;2023-03-08T11:32:18;0.90;;;0.20;;
55254;SDS011;41118;44.634;11.182;2023-03-08T11:34:57;1.77;;;0.20;;
55254;SDS011;41118;44.634;11.182;2023-03-08T11:39:52;3.17;;;0.35;;
55254;SDS011;41118;44.634;11.182;2023-03-08T11:49:53;4.10;;;0.93;;
55254;SDS011;41118;44.634;11.182;2023-03-08T11:57:35;1.17;;;0.20;;
55254;SDS011;41118;44.634;11.182;2023-03-08T12:00:04;5.07;;;0.40;;
55254;SDS011;41118;44.634;11.182;2023-03-08T12:02:37;2.28;;;0.50;;
55254;SDS011;41118;44.634;11.182;2023-03-08T12:05:08;1.50;;;0.20;;
55254;SDS011;41118;44.634;11.182;2023-03-08T12:07:38;0.98;;;0.30;;
55254;SDS011;41118;44.634;11.182;2023-03-08T12:10:22;2.13;;;0.28;;
55254;SDS011;41118;44.634;11.182;2023-03-08T12:12:58;1.88;;;0.20;;
55254;SDS011;41118;44.634;11.182;2023-03-08T12:18:01;3.25;;;0.30;;
55254;SDS011;41118;44.634;11.182;2023-03-08T12:20:30;1.88;;;0.40;;
55254;SDS011;41118;44.634;11.182;2023-03-08T12:23:02;1.85;;;0.20;;
55254;SDS011;41118;44.634;11.182;2023-03-08T12:25:34;1.50;;;0.20;;
55254;SDS011;41118;44.634;11.182;2023-03-08T12:33:32;1.85;;;0.20;;
55254;SDS011;41118;44.634;11.182;2023-03-08T12:36:03;1.92;;;0.30;;
55254;SDS011;41118;44.634;11.182;2023-03-08T12:40:55;2.67;;;0.20;;
55254;SDS011;41118;44.634;11.182;2023-03-08T12:48:27;0.95;;;0.17;;
55254;SDS011;41118;44.634;11.182;2023-03-08T12:50:57;0.90;;;0.20;;
55254;SDS011;41118;44.634;11.182;2023-03-08T12:58:31;1.27;;;0.20;;
55254;SDS011;41118;44.634;11.182;2023-03-08T13:01:00;2.08;;;0.20;;
55254;SDS011;41118;44.634;11.182;2023-03-08T13:03:28;1.42;;;0.20;;
55254;SDS011;41118;44.634;11.182;2023-03-08T13:05:54;1.88;;;0.20;;
55254;SDS011;41118;44.634;11.182;2023-03-08T13:08:22;2.20;;;0.30;;
55254;SDS011;41118;44.634;11.182;2023-03-08T13:15:46;1.65;;;0.20;;
55254;SDS011;41118;44.634;11.182;2023-03-08T13:18:19;1.00;;;0.20;;
55254;SDS011;41118;44.634;11.182;2023-03-08T13:21:29;3.40;;;0.20;;
55254;SDS011;41118;44.634;11.182;2023-03-08T13:23:40;2.55;;;0.20;;
55254;SDS011;41118;44.634;11.182;2023-03-08T13:28:38;1.63;;;0.20;;
55254;SDS011;41118;44.634;11.182;2023-03-08T13:33:39;1.20;;;0.30;;
55254;SDS011;41118;44.634;11.182;2023-03-08T13:36:13;2.97;;;0.20;;
55254;SDS011;41118;44.634;11.182;2023-03-08T13:38:40;1.17;;;0.22;;
55254;SDS011;41118;44.634;11.182;2023-03-08T13:41:06;0.70;;;0.10;;
55254;SDS011;41118;44.634;11.182;2023-03-08T13:43:33;1.10;;;0.20;;
55254;SDS011;41118;44.634;11.182;2023-03-08T13:46:01;1.85;;;0.28;;
55254;SDS011;41118;44.634;11.182;2023-03-08T13:48:29;1.42;;;0.20;;
55254;SDS011;41118;44.634;11.182;2023-03-08T13:50:55;1.08;;;0.20;;
55254;SDS011;41118;44.634;11.182;2023-03-08T13:53:27;1.85;;;0.20;;
55254;SDS011;41118;44.634;11.182;2023-03-08T13:55:55;3.92;;;0.63;;
55254;SDS011;41118;44.634;11.182;2023-03-08T13:58:32;5.15;;;0.45;;
55254;SDS011;41118;44.634;11.182;2023-03-08T14:03:37;2.10;;;0.20;;
55254;SDS011;41118;44.634;11.182;2023-03-08T14:06:12;1.00;;;0.25;;
55254;SDS011;41118;44.634;11.182;2023-03-08T14:08:39;2.45;;;0.20;;
55254;SDS011;41118;44.634;11.182;2023-03-08T14:11:06;1.00;;;0.10;;
55254;SDS011;41118;44.634;11.182;2023-03-08T14:13:38;2.58;;;0.20;;
55254;SDS011;41118;44.634;11.182;2023-03-08T14:16:07;2.83;;;0.20;;
55254;SDS011;41118;44.634;11.182;2023-03-08T14:18:34;2.63;;;0.20;;
55254;SDS011;41118;44.634;11.182;2023-03-08T14:21:03;1.33;;;0.20;;
55254;SDS011;41118;44.634;11.182;2023-03-08T14:23:51;1.15;;;0.20;;
55254;SDS011;41118;44.634;11.182;2023-03-08T14:28:49;1.15;;;0.13;;
55254;SDS011;41118;44.634;11.182;2023-03-08T14:31:27;4.50;;;0.20;;
55254;SDS011;41118;44.634;11.182;2023-03-08T14:34:01;2.55;;;0.30;;
55254;SDS011;41118;44.634;11.182;2023-03-08T14:36:27;6.25;;;0.20;;
55254;SDS011;41118;44.634;11.182;2023-03-08T14:38:54;1.77;;;0.28;;
55254;SDS011;41118;44.634;11.182;2023-03-08T14:41:33;1.33;;;0.20;;
55254;SDS011;41118;44.634;11.182;2023-03-08T14:44:00;2.05;;;0.20;;
55254;SDS011;41118;44.634;11.182;2023-03-08T14:46:27;2.47;;;0.17;;
55254;SDS011;41118;44.634;11.182;2023-03-08T14:48:58;3.88;;;0.10;;
55254;SDS011;41118;44.634;11.182;2023-03-08T14:51:26;1.27;;;0.20;;
55254;SDS011;41118;44.634;11.182;2023-03-08T14:54:03;1.90;;;0.20;;
55254;SDS011;41118;44.634;11.182;2023-03-08T14:56:33;1.48;;;0.30;;
55254;SDS011;41118;44.634;11.182;2023-03-08T14:58:59;0.90;;;0.20;;
55254;SDS011;41118;44.634;11.182;2023-03-08T15:01:30;1.73;;;0.20;;
55254;SDS011;41118;44.634;11.182;2023-03-08T15:03:57;2.05;;;0.10;;
55254;SDS011;41118;44.634;11.182;2023-03-08T15:06:24;1.52;;;0.20;;
55254;SDS011;41118;44.634;11.182;2023-03-08T15:08:51;1.73;;;0.20;;
55254;SDS011;41118;44.634;11.182;2023-03-08T15:11:18;3.05;;;0.30;;
55254;SDS011;41118;44.634;11.182;2023-03-08T15:13:44;2.78;;;0.20;;
55254;SDS011;41118;44.634;11.182;2023-03-08T15:16:11;1.42;;;0.20;;
55254;SDS011;41118;44.634;11.182;2023-03-08T15:18:37;1.30;;;0.20;;
55254;SDS011;41118;44.634;11.182;2023-03-08T15:21:03;3.42;;;0.40;;
55254;SDS011;41118;44.634;11.182;2023-03-08T15:23:31;1.20;;;0.28;;
55254;SDS011;41118;44.634;11.182;2023-03-08T15:25:58;1.52;;;0.30;;
55254;SDS011;41118;44.634;11.182;2023-03-08T15:28:24;1.60;;;0.20;;
55254;SDS011;41118;44.634;11.182;2023-03-08T15:30:51;1.95;;;0.32;;
55254;SDS011;41118;44.634;11.182;2023-03-08T15:33:19;2.40;;;0.30;;
55254;SDS011;41118;44.634;11.182;2023-03-08T15:35:45;3.30;;;0.30;;
55254;SDS011;41118;44.634;11.182;2023-03-08T15:38:12;2.25;;;0.20;;
55254;SDS011;41118;44.634;11.182;2023-03-08T15:40:39;2.08;;;0.30;;
55254;SDS011;41118;44.634;11.182;2023-03-08T15:43:05;0.98;;;0.20;;
55254;SDS011;41118;44.634;11.182;2023-03-08T15:45:31;3.17;;;0.30;;
55254;SDS011;41118;44.634;11.182;2023-03-08T15:47:59;4.53;;;0.52;;
55254;SDS011;41118;44.634;11.182;2023-03-08T15:50:25;1.98;;;0.70;;
55254;SDS011;41118;44.634;11.182;2023-03-08T15:52:51;1.27;;;0.40;;
55254;SDS011;41118;44.634;11.182;2023-03-08T15:55:18;1.25;;;0.25;;
55254;SDS011;41118;44.634;11.182;2023-03-08T15:57:45;2.67;;;0.30;;
55254;SDS011;41118;44.634;11.182;2023-03-08T16:00:12;4.45;;;0.20;;
55254;SDS011;41118;44.634;11.182;2023-03-08T16:02:38;3.65;;;0.40;;
55254;SDS011;41118;44.634;11.182;2023-03-08T16:05:05;2.70;;;0.30;;
55254;SDS011;41118;44.634;11.182;2023-03-08T16:07:32;2.30;;;0.40;;
55254;SDS011;41118;44.634;11.182;2023-03-08T16:09:58;2.47;;;0.40;;
55254;SDS011;41118;44.634;11.182;2023-03-08T16:12:24;3.20;;;0.40;;